Weather at Inhaca Airport

Public forecast

Using degrees Celsius for public forecast. Weather courtesy of forecast.io.

Closest aviation weather report (METAR) to Inhaca Airport

Closest report is Maputo Airport, 19.8 nm (36.7 km) WNW. Retrieved 2020/09/20 04:00 UTC (19 seconds ago):

FQMA 200400Z 24004KT 9999 SCT025 19/17 Q1017 NOSIG

Closest aviation forecast (TAF) to Inhaca Airport

Closest forecast is Maputo Airport, 19.8 nm (36.7 km) WNW. Retrieved 2020-09-20 00:00 UTC (4 hours ago):

TAF FQMA 192200Z 2000/2106 24010KT 9999 BKN025 TX34/2013Z TN20/2003Z BECMG 2006/2008 17012KT FEW020 BECMG 2012/2014 35012KT